createdAt,value
2023-01-18T00:00:29.909Z,11.42
2023-01-18T00:02:02.013Z,11.38
2023-01-18T00:03:33.889Z,11.38
2023-01-18T00:05:07.408Z,11.37
2023-01-18T00:06:39.253Z,11.38
2023-01-18T00:08:11.314Z,11.36
2023-01-18T00:09:43.082Z,11.34
2023-01-18T00:11:16.022Z,11.33
2023-01-18T00:12:47.847Z,11.34
2023-01-18T00:14:22.407Z,11.33
2023-01-18T00:15:56.184Z,11.35
2023-01-18T00:17:27.676Z,11.33
2023-01-18T00:18:59.841Z,11.32
2023-01-18T00:20:31.589Z,11.33
2023-01-18T00:22:03.118Z,11.35
2023-01-18T00:23:34.844Z,11.36
2023-01-18T00:25:06.426Z,11.39
2023-01-18T00:26:38.309Z,11.44
2023-01-18T00:28:09.772Z,11.42
2023-01-18T00:29:41.371Z,11.41
2023-01-18T00:31:13.952Z,11.40
2023-01-18T00:32:45.725Z,11.39
2023-01-18T00:34:17.667Z,11.41
2023-01-18T00:35:56.832Z,11.38
2023-01-18T00:37:28.538Z,11.38
2023-01-18T00:39:00.410Z,11.36
2023-01-18T00:40:31.991Z,11.36
2023-01-18T00:42:21.817Z,11.33
2023-01-18T00:43:55.612Z,11.32
2023-01-18T00:45:30.322Z,11.28
2023-01-18T00:47:01.952Z,11.25
2023-01-18T00:48:33.532Z,11.27
2023-01-18T00:50:05.467Z,11.26
2023-01-18T00:51:37.208Z,11.25
2023-01-18T00:53:10.847Z,11.25
2023-01-18T00:54:42.474Z,11.26
2023-01-18T00:56:15.242Z,11.28
2023-01-18T00:57:48.818Z,11.31
2023-01-18T00:59:20.701Z,11.33
2023-01-18T01:00:52.953Z,11.34
2023-01-18T01:02:25.176Z,11.34
2023-01-18T01:04:15.082Z,11.35
2023-01-18T01:06:05.306Z,11.37
2023-01-18T01:07:36.860Z,11.36
2023-01-18T01:09:08.405Z,11.32
2023-01-18T01:10:40.067Z,11.31
2023-01-18T01:12:32.186Z,11.30
2023-01-18T01:14:22.326Z,11.34
2023-01-18T01:16:14.964Z,11.36
2023-01-18T01:18:05.473Z,11.39
2023-01-18T01:19:55.392Z,11.40
2023-01-18T01:21:45.721Z,11.43
2023-01-18T01:23:36.726Z,11.47
2023-01-18T01:25:26.934Z,11.50
2023-01-18T01:26:58.773Z,11.52
2023-01-18T01:28:30.536Z,11.53
2023-01-18T01:30:04.141Z,11.53
2023-01-18T01:31:35.775Z,11.57
2023-01-18T01:33:07.903Z,11.62
2023-01-18T01:34:39.471Z,11.65
2023-01-18T01:36:11.932Z,11.68
2023-01-18T01:37:43.689Z,11.71
2023-01-18T01:39:15.266Z,11.74
2023-01-18T01:41:05.612Z,11.77
2023-01-18T01:42:39.211Z,11.80
2023-01-18T01:44:20.275Z,11.81
2023-01-18T01:45:52.940Z,11.85
2023-01-18T01:47:27.707Z,11.88
2023-01-18T01:49:09.512Z,11.90
2023-01-18T01:50:41.229Z,11.93
2023-01-18T01:52:15.590Z,11.94
2023-01-18T01:53:47.745Z,11.97
2023-01-18T01:55:41.576Z,11.98
2023-01-18T01:57:17.978Z,12.02
2023-01-18T01:58:51.739Z,12.04
2023-01-18T02:00:33.188Z,12.04
2023-01-18T02:02:04.949Z,12.04
2023-01-18T02:03:37.186Z,12.05
2023-01-18T02:05:09.458Z,12.06
2023-01-18T02:06:41.027Z,12.07
2023-01-18T02:08:15.117Z,12.12
2023-01-18T02:11:32.021Z,12.16
2023-01-18T02:13:10.070Z,12.20
2023-01-18T02:14:41.940Z,12.23
2023-01-18T02:16:16.296Z,12.24
2023-01-18T02:17:55.201Z,12.24
2023-01-18T02:19:29.668Z,12.24
2023-01-18T02:21:04.307Z,12.27
2023-01-18T02:22:39.130Z,12.27
2023-01-18T02:24:31.428Z,12.30
2023-01-18T02:26:02.980Z,12.33
2023-01-18T02:27:43.808Z,12.32
2023-01-18T02:29:18.805Z,12.34
2023-01-18T02:30:52.879Z,12.36
2023-01-18T02:33:02.990Z,12.34
2023-01-18T02:34:34.440Z,12.34
2023-01-18T02:36:06.008Z,12.32
2023-01-18T02:37:37.695Z,12.31
2023-01-18T02:39:23.572Z,12.33
2023-01-18T02:40:55.190Z,12.35
2023-01-18T02:42:46.069Z,12.36
2023-01-18T02:44:37.162Z,12.37
2023-01-18T02:46:47.195Z,12.36
2023-01-18T02:48:26.838Z,12.35
2023-01-18T02:49:58.416Z,12.35
2023-01-18T02:51:29.976Z,12.34
2023-01-18T02:53:01.503Z,12.35
2023-01-18T02:54:36.788Z,12.37
2023-01-18T02:56:10.924Z,12.41
2023-01-18T02:57:43.506Z,12.42
2023-01-18T02:59:21.668Z,12.39
2023-01-18T03:01:04.392Z,12.41
2023-01-18T03:02:36.017Z,12.43
2023-01-18T03:04:11.403Z,12.41
2023-01-18T03:05:43.035Z,12.41
2023-01-18T03:07:16.849Z,12.39
2023-01-18T03:08:49.012Z,12.42
2023-01-18T03:10:20.855Z,12.42
2023-01-18T03:11:56.904Z,12.44
2023-01-18T03:13:36.244Z,12.44
2023-01-18T03:15:10.084Z,12.48
2023-01-18T03:16:42.011Z,12.53
2023-01-18T03:18:32.858Z,12.51
2023-01-18T03:20:10.586Z,12.49
2023-01-18T03:21:43.303Z,12.46
2023-01-18T03:23:33.439Z,12.44
2023-01-18T03:25:05.061Z,12.44
2023-01-18T03:26:38.861Z,12.46
2023-01-18T03:28:32.539Z,12.44
2023-01-18T03:30:22.567Z,12.42
2023-01-18T03:32:14.988Z,12.48
2023-01-18T03:33:49.084Z,12.49
2023-01-18T03:35:21.050Z,12.48
2023-01-18T03:36:53.314Z,12.47
2023-01-18T03:38:24.828Z,12.44
2023-01-18T03:40:01.331Z,12.43
2023-01-18T03:41:37.510Z,12.43
2023-01-18T03:43:12.832Z,12.42
2023-01-18T03:44:54.796Z,12.43
2023-01-18T03:46:26.427Z,12.46
2023-01-18T03:47:58.055Z,12.47
2023-01-18T03:49:29.698Z,12.47
2023-01-18T03:51:20.718Z,12.43
2023-01-18T03:52:53.963Z,12.41
2023-01-18T03:54:43.927Z,12.41
2023-01-18T03:56:22.517Z,12.41
2023-01-18T03:58:17.041Z,12.43
2023-01-18T03:59:49.654Z,12.44
2023-01-18T04:01:21.324Z,12.45
2023-01-18T04:02:53.015Z,12.46
2023-01-18T04:04:24.564Z,12.49
2023-01-18T04:05:56.042Z,12.49
2023-01-18T04:07:27.501Z,12.50
2023-01-18T04:08:58.991Z,12.50
2023-01-18T04:10:30.595Z,12.47
2023-01-18T04:12:02.185Z,12.48
2023-01-18T04:13:33.668Z,12.46
2023-01-18T04:15:05.409Z,12.44
2023-01-18T04:16:37.429Z,12.39
2023-01-18T04:18:10.225Z,12.38
2023-01-18T04:19:41.822Z,12.35
2023-01-18T04:21:14.722Z,12.33
2023-01-18T04:22:50.985Z,12.31
2023-01-18T04:24:22.593Z,12.31
2023-01-18T04:25:54.121Z,12.34
2023-01-18T04:27:25.742Z,12.35
2023-01-18T04:28:57.303Z,12.36
2023-01-18T04:30:31.207Z,12.37
2023-01-18T04:32:02.759Z,12.35
2023-01-18T04:33:34.359Z,12.36
2023-01-18T04:35:06.377Z,12.35
2023-01-18T04:36:38.121Z,12.36
2023-01-18T04:38:11.017Z,12.38
2023-01-18T04:39:42.799Z,12.39
2023-01-18T04:41:15.042Z,12.40
2023-01-18T04:42:52.993Z,12.38
2023-01-18T04:44:24.604Z,12.42
2023-01-18T04:45:56.229Z,12.38
2023-01-18T04:47:30.564Z,12.36
2023-01-18T04:49:02.089Z,12.37
2023-01-18T04:50:33.684Z,12.38
2023-01-18T04:52:07.305Z,12.38
2023-01-18T04:53:39.678Z,12.40
2023-01-18T04:55:15.957Z,12.43
2023-01-18T04:56:47.972Z,12.41
2023-01-18T05:44:05.088Z,11.98
2023-01-18T05:45:36.722Z,12.12
2023-01-18T05:47:08.398Z,12.24
2023-01-18T05:48:40.092Z,12.32
2023-01-18T05:50:12.530Z,12.40
2023-01-18T05:51:44.575Z,12.46
2023-01-18T05:53:16.800Z,12.50
2023-01-18T05:54:48.287Z,12.51
2023-01-18T05:56:19.844Z,12.54
2023-01-18T05:57:51.521Z,12.58
2023-01-18T05:59:23.137Z,12.57
2023-01-18T06:00:54.895Z,12.59
2023-01-18T06:02:26.482Z,12.55
2023-01-18T06:03:57.995Z,12.52
2023-01-18T06:05:29.569Z,12.51
2023-01-18T06:07:01.113Z,12.49
2023-01-18T06:08:32.707Z,12.46
2023-01-18T06:10:04.831Z,12.48
2023-01-18T06:11:36.768Z,12.46
2023-01-18T06:13:08.496Z,12.46
2023-01-18T06:14:40.253Z,12.47
2023-01-18T06:16:12.607Z,12.46
2023-01-18T06:17:45.713Z,12.42
2023-01-18T06:19:17.837Z,12.40
2023-01-18T06:20:49.456Z,12.41
2023-01-18T06:22:21.306Z,12.41
2023-01-18T06:23:52.828Z,12.42
2023-01-18T06:25:24.441Z,12.43
2023-01-18T06:26:55.979Z,12.45
2023-01-18T06:28:30.261Z,12.44
2023-01-18T06:30:02.079Z,12.44
2023-01-18T06:31:33.703Z,12.44
2023-01-18T06:33:08.675Z,12.45
2023-01-18T06:34:40.421Z,12.43
2023-01-18T06:36:12.240Z,12.42
2023-01-18T06:37:45.067Z,12.42
2023-01-18T06:39:16.791Z,12.43
2023-01-18T06:40:51.636Z,12.44
2023-01-18T06:42:23.138Z,12.42
2023-01-18T06:43:54.720Z,12.38
2023-01-18T06:45:26.665Z,12.38
2023-01-18T06:46:58.255Z,12.40
2023-01-18T06:48:29.943Z,12.41
2023-01-18T06:50:01.536Z,12.45
2023-01-18T06:51:33.139Z,12.44
2023-01-18T06:53:04.625Z,12.43
2023-01-18T06:54:36.942Z,12.42
2023-01-18T06:56:10.435Z,12.42
2023-01-18T06:57:42.274Z,12.38
2023-01-18T06:59:16.954Z,12.39
2023-01-18T07:00:48.724Z,12.41
2023-01-18T07:02:21.227Z,12.40
2023-01-18T07:03:52.828Z,12.40
2023-01-18T07:05:27.346Z,12.42
2023-01-18T07:06:59.039Z,12.41
2023-01-18T07:08:33.376Z,12.39
2023-01-18T07:10:05.081Z,12.41
2023-01-18T07:11:37.303Z,12.41
2023-01-18T07:13:10.107Z,12.41
2023-01-18T07:14:42.086Z,12.39
2023-01-18T07:16:17.662Z,12.38
2023-01-18T07:17:50.699Z,12.37
2023-01-18T07:19:22.372Z,12.37
2023-01-18T07:20:57.744Z,12.38
2023-01-18T07:22:30.909Z,12.41
2023-01-18T07:24:02.673Z,12.42
2023-01-18T07:25:34.207Z,12.48
2023-01-18T07:27:08.054Z,12.59
2023-01-18T07:28:39.731Z,12.75
2023-01-18T07:30:12.618Z,12.91
2023-01-18T07:31:44.611Z,13.02
2023-01-18T07:33:16.851Z,13.15
2023-01-18T07:34:50.524Z,13.22
2023-01-18T07:36:26.709Z,13.30
2023-01-18T07:37:58.199Z,13.40
2023-01-18T07:39:29.779Z,13.47
2023-01-18T07:41:04.544Z,13.54
2023-01-18T07:42:36.220Z,13.59
2023-01-18T07:44:09.860Z,13.65
2023-01-18T07:45:45.039Z,13.78
2023-01-18T07:47:17.764Z,13.86
2023-01-18T07:48:50.123Z,13.89
2023-01-18T07:50:22.613Z,13.93
2023-01-18T07:51:54.222Z,13.89
2023-01-18T07:53:26.180Z,13.80
2023-01-18T07:54:57.745Z,13.72
2023-01-18T07:56:29.233Z,13.67
2023-01-18T07:58:03.170Z,13.70
2023-01-18T07:59:34.755Z,13.75
2023-01-18T08:01:07.552Z,13.85
2023-01-18T08:02:41.521Z,13.94
2023-01-18T08:04:13.804Z,13.95
2023-01-18T08:05:45.731Z,13.98
2023-01-18T08:07:18.109Z,13.97
2023-01-18T08:08:49.951Z,13.96
2023-01-18T08:10:23.053Z,14.01
2023-01-18T08:11:56.713Z,14.17
2023-01-18T08:13:30.396Z,14.26
2023-01-18T08:15:01.882Z,14.30
2023-01-18T08:16:33.536Z,14.29
2023-01-18T08:18:05.543Z,14.29
2023-01-18T08:19:37.188Z,14.26
2023-01-18T08:21:11.092Z,14.26
2023-01-18T08:22:45.256Z,14.31
2023-01-18T08:24:17.234Z,14.39
2023-01-18T08:25:49.986Z,14.40
2023-01-18T08:27:22.951Z,14.43
2023-01-18T08:28:54.716Z,14.51
2023-01-18T08:30:28.312Z,14.64
2023-01-18T08:32:00.901Z,14.76
2023-01-18T08:33:32.353Z,14.87
2023-01-18T08:35:08.236Z,15.02
2023-01-18T08:36:40.305Z,15.18
2023-01-18T08:38:15.250Z,15.24
2023-01-18T08:39:47.243Z,15.17
2023-01-18T08:41:20.909Z,15.09
2023-01-18T08:42:58.919Z,14.99
2023-01-18T08:44:31.520Z,14.94
2023-01-18T08:46:03.144Z,14.95
2023-01-18T08:47:35.148Z,14.98
2023-01-18T08:49:06.713Z,15.09
2023-01-18T08:50:39.370Z,15.11
2023-01-18T08:52:11.117Z,15.19
2023-01-18T08:53:43.643Z,15.32
2023-01-18T08:55:15.917Z,15.43
2023-01-18T08:56:47.936Z,15.52
2023-01-18T08:58:20.237Z,15.65
2023-01-18T08:59:51.771Z,15.74
2023-01-18T09:01:24.177Z,15.78
2023-01-18T09:02:56.288Z,15.76
2023-01-18T09:04:29.371Z,15.78
2023-01-18T09:06:01.350Z,15.80
2023-01-18T09:07:33.397Z,15.89
2023-01-18T09:09:07.601Z,15.92
2023-01-18T09:10:39.263Z,15.94
2023-01-18T09:12:11.558Z,15.96
2023-01-18T09:13:59.484Z,15.89
2023-01-18T09:15:31.907Z,15.91
2023-01-18T09:17:03.642Z,15.99
2023-01-18T09:18:35.716Z,16.03
2023-01-18T09:20:12.103Z,15.93
2023-01-18T09:21:46.027Z,15.94
2023-01-18T09:23:18.135Z,15.93
2023-01-18T09:24:52.780Z,16.02
2023-01-18T09:26:24.731Z,16.03
2023-01-18T09:27:56.217Z,15.91
2023-01-18T09:29:27.944Z,15.83
2023-01-18T09:31:00.234Z,15.71
2023-01-18T09:32:37.507Z,15.63
2023-01-18T09:34:18.889Z,15.68
2023-01-18T09:35:51.119Z,15.72
2023-01-18T09:37:23.032Z,15.82
2023-01-18T09:38:55.059Z,15.85
2023-01-18T09:40:43.726Z,15.84
2023-01-18T09:42:25.110Z,15.94
2023-01-18T09:43:57.384Z,16.08
2023-01-18T09:45:30.913Z,16.18
2023-01-18T09:47:13.502Z,16.21
2023-01-18T09:48:45.865Z,16.16
2023-01-18T09:50:18.130Z,16.12
2023-01-18T09:52:28.255Z,16.10
2023-01-18T09:54:05.697Z,16.00
2023-01-18T09:55:37.372Z,16.01
2023-01-18T09:57:29.577Z,16.15
2023-01-18T09:59:13.753Z,16.23
2023-01-18T10:00:47.376Z,16.17
2023-01-18T10:02:19.975Z,16.10
2023-01-18T10:03:57.357Z,16.07
2023-01-18T10:05:33.406Z,16.08
2023-01-18T10:07:08.735Z,16.15
2023-01-18T10:08:46.255Z,16.23
2023-01-18T10:10:19.320Z,16.24
2023-01-18T10:11:55.284Z,16.32
2023-01-18T10:13:30.158Z,16.30
2023-01-18T10:15:02.208Z,16.25
2023-01-18T10:16:34.144Z,16.21
2023-01-18T10:18:05.773Z,16.27
2023-01-18T10:19:39.707Z,16.32
2023-01-18T10:21:14.265Z,16.41
2023-01-18T10:22:53.547Z,16.44
2023-01-18T10:24:27.924Z,16.44
2023-01-18T10:26:03.261Z,16.41
2023-01-18T10:27:44.067Z,16.55
2023-01-18T10:29:18.826Z,16.78
2023-01-18T10:30:58.631Z,16.83
2023-01-18T10:32:30.244Z,16.69
2023-01-18T10:34:01.690Z,16.61
2023-01-18T10:35:35.237Z,16.58
2023-01-18T10:37:14.929Z,16.59
2023-01-18T10:38:47.416Z,16.49
2023-01-18T10:40:23.213Z,16.39
2023-01-18T10:41:57.031Z,16.23
2023-01-18T10:43:29.256Z,16.32
2023-01-18T10:45:00.772Z,16.38
2023-01-18T10:46:32.372Z,16.44
2023-01-18T10:48:22.625Z,16.48
2023-01-18T10:49:57.431Z,16.50
2023-01-18T10:51:32.667Z,16.62
2023-01-18T10:53:33.487Z,16.84
2023-01-18T10:55:07.801Z,16.98
2023-01-18T10:56:40.179Z,17.05
2023-01-18T10:58:11.831Z,17.11
2023-01-18T10:59:43.384Z,17.13
2023-01-18T11:01:30.886Z,17.06
2023-01-18T11:03:02.805Z,17.10
2023-01-18T11:04:34.396Z,17.18
2023-01-18T11:06:06.364Z,17.18
2023-01-18T11:07:38.824Z,17.34
2023-01-18T11:09:30.300Z,17.54
2023-01-18T11:11:05.948Z,17.77
2023-01-18T11:12:45.693Z,17.80
2023-01-18T11:14:28.622Z,17.73
2023-01-18T11:16:11.139Z,17.60
2023-01-18T11:17:47.108Z,17.57
2023-01-18T11:19:20.225Z,17.62
2023-01-18T11:20:51.829Z,17.60
2023-01-18T11:22:23.388Z,17.57
2023-01-18T11:23:58.037Z,17.57
2023-01-18T11:25:39.316Z,17.53
2023-01-18T11:27:14.603Z,17.57
2023-01-18T11:28:48.053Z,17.48
2023-01-18T11:30:21.341Z,17.42
2023-01-18T11:31:53.155Z,17.48
2023-01-18T11:33:25.815Z,17.54
2023-01-18T11:35:00.335Z,17.64
2023-01-18T11:36:37.908Z,17.71
2023-01-18T11:38:15.953Z,17.87
2023-01-18T11:39:47.720Z,17.95
2023-01-18T11:41:20.527Z,18.03
2023-01-18T11:42:53.346Z,17.90
2023-01-18T11:44:25.562Z,17.80
2023-01-18T11:46:29.861Z,17.61
2023-01-18T11:48:04.211Z,17.41
2023-01-18T11:49:46.127Z,17.46
2023-01-18T11:51:23.907Z,17.47
2023-01-18T11:53:07.608Z,17.51
2023-01-18T11:54:47.484Z,17.39
2023-01-18T11:56:28.813Z,17.36
2023-01-18T11:58:00.859Z,17.35
2023-01-18T11:59:36.544Z,17.44
2023-01-18T12:01:11.152Z,17.57
2023-01-18T12:02:49.998Z,17.62
2023-01-18T12:04:40.480Z,17.63
2023-01-18T12:06:17.057Z,17.70
2023-01-18T12:07:58.005Z,17.64
2023-01-18T12:09:38.998Z,17.74
2023-01-18T12:11:23.105Z,17.86
2023-01-18T12:13:12.566Z,18.04
2023-01-18T12:14:44.099Z,18.07
2023-01-18T12:16:17.520Z,17.95
2023-01-18T12:18:13.219Z,17.91
2023-01-18T12:19:48.403Z,17.83
2023-01-18T12:21:25.715Z,17.82
2023-01-18T12:23:08.810Z,17.83
2023-01-18T12:24:45.955Z,17.83
2023-01-18T12:26:20.950Z,17.71
2023-01-18T12:27:55.784Z,17.63
2023-01-18T12:29:31.388Z,17.64
2023-01-18T12:31:06.049Z,17.74
2023-01-18T12:32:40.691Z,17.80
2023-01-18T12:34:15.889Z,17.71
2023-01-18T12:35:50.490Z,17.58
2023-01-18T12:37:28.568Z,17.56
2023-01-18T12:39:00.024Z,17.51
2023-01-18T12:40:40.549Z,17.41
2023-01-18T12:42:20.488Z,17.27
2023-01-18T12:43:58.034Z,17.14
2023-01-18T12:45:47.948Z,16.88
2023-01-18T12:47:25.746Z,16.69
2023-01-18T12:49:04.823Z,16.54
2023-01-18T12:50:41.701Z,16.51
2023-01-18T12:52:19.047Z,16.53
2023-01-18T12:53:53.646Z,16.57
2023-01-18T12:55:25.880Z,16.70
2023-01-18T12:56:57.834Z,16.76
2023-01-18T12:58:29.284Z,16.77
2023-01-18T13:00:15.500Z,16.76
2023-01-18T13:01:52.496Z,16.71
2023-01-18T13:03:25.438Z,16.66
2023-01-18T13:05:06.219Z,16.65
2023-01-18T13:06:37.957Z,16.47
2023-01-18T13:08:29.775Z,16.30
2023-01-18T13:10:01.834Z,16.18
2023-01-18T13:11:40.075Z,16.17
2023-01-18T13:13:13.074Z,16.17
2023-01-18T13:15:05.833Z,16.23
2023-01-18T13:16:56.155Z,16.23
2023-01-18T13:18:27.667Z,16.24
2023-01-18T13:20:02.486Z,16.31
2023-01-18T13:21:40.042Z,16.33
2023-01-18T13:23:15.072Z,16.33
2023-01-18T13:24:53.198Z,16.34
2023-01-18T13:26:29.908Z,16.39
2023-01-18T13:28:02.454Z,16.37
2023-01-18T13:29:34.075Z,16.33
2023-01-18T13:31:06.545Z,16.29
2023-01-18T13:32:38.145Z,16.27
2023-01-18T13:34:31.693Z,16.23
2023-01-18T13:36:14.893Z,16.22
2023-01-18T13:37:50.569Z,16.07
2023-01-18T13:39:23.883Z,16.06
2023-01-18T13:41:02.754Z,16.03
2023-01-18T13:42:35.508Z,15.93
2023-01-18T13:44:25.662Z,15.81
2023-01-18T13:46:02.759Z,15.72
2023-01-18T13:47:42.966Z,15.67
2023-01-18T13:49:36.209Z,15.56
2023-01-18T13:51:09.570Z,15.48
2023-01-18T13:52:43.627Z,15.44
2023-01-18T13:54:19.555Z,15.35
2023-01-18T13:55:59.956Z,15.31
2023-01-18T13:57:32.313Z,15.27
2023-01-18T13:59:06.386Z,15.24
2023-01-18T14:00:38.138Z,15.18
2023-01-18T14:02:25.714Z,15.22
2023-01-18T14:03:57.459Z,15.21
2023-01-18T14:05:30.811Z,15.20
2023-01-18T14:07:02.842Z,15.24
2023-01-18T14:08:34.478Z,15.24
2023-01-18T14:10:08.329Z,15.24
2023-01-18T14:11:41.791Z,15.22
2023-01-18T14:13:17.656Z,15.23
2023-01-18T14:14:59.361Z,15.23
2023-01-18T14:16:34.141Z,15.22
2023-01-18T14:18:13.977Z,15.16
2023-01-18T14:19:48.232Z,15.14
2023-01-18T14:21:21.534Z,15.12
2023-01-18T14:23:06.416Z,15.12
2023-01-18T14:24:50.831Z,15.14
2023-01-18T14:26:25.215Z,15.13
2023-01-18T14:28:04.747Z,15.13
2023-01-18T14:29:41.918Z,15.12
2023-01-18T14:31:14.835Z,15.12
2023-01-18T14:32:49.727Z,15.12
2023-01-18T14:34:24.371Z,15.14
2023-01-18T14:35:58.367Z,15.16
2023-01-18T14:37:30.851Z,15.14
2023-01-18T14:39:14.952Z,15.14
2023-01-18T14:40:47.547Z,15.11
2023-01-18T14:42:19.163Z,15.13
2023-01-18T14:43:52.177Z,15.10
2023-01-18T14:45:29.217Z,15.05
2023-01-18T14:47:08.192Z,15.01
2023-01-18T14:48:54.192Z,15.02
2023-01-18T14:50:26.079Z,15.04
2023-01-18T14:51:57.597Z,15.04
2023-01-18T14:53:30.314Z,15.01
2023-01-18T14:55:03.212Z,15.00
2023-01-18T14:56:40.552Z,15.02
2023-01-18T14:58:13.355Z,15.00
2023-01-18T14:59:55.457Z,14.98
2023-01-18T15:01:28.860Z,14.97
2023-01-18T15:03:01.354Z,14.95
2023-01-18T15:04:34.953Z,14.97
2023-01-18T15:06:09.538Z,15.00
2023-01-18T15:07:41.154Z,15.03
2023-01-18T15:09:12.947Z,15.05
2023-01-18T15:10:44.475Z,15.06
2023-01-18T15:12:17.273Z,15.06
2023-01-18T15:13:49.620Z,15.05
2023-01-18T15:15:28.772Z,15.05
2023-01-18T15:17:00.569Z,15.04
2023-01-18T15:18:32.603Z,15.01
2023-01-18T15:20:05.770Z,14.96
2023-01-18T15:21:37.226Z,14.92
2023-01-18T15:23:08.745Z,14.89
2023-01-18T15:24:40.993Z,14.84
2023-01-18T15:26:12.589Z,14.83
2023-01-18T15:27:47.792Z,14.82
2023-01-18T15:29:20.292Z,14.85
2023-01-18T15:30:52.813Z,14.85
2023-01-18T15:32:25.261Z,14.82
2023-01-18T15:33:57.852Z,14.80
2023-01-18T15:37:02.215Z,14.82
2023-01-18T15:38:34.384Z,14.82
2023-01-18T15:40:14.811Z,14.77
2023-01-18T15:41:46.373Z,14.75
2023-01-18T15:43:28.346Z,14.75
2023-01-18T15:45:00.146Z,14.77
2023-01-18T15:46:32.952Z,14.73
2023-01-18T15:48:07.064Z,14.72
2023-01-18T15:49:42.038Z,14.70
2023-01-18T15:51:13.517Z,14.71
2023-01-18T15:52:45.999Z,14.73
2023-01-18T15:54:18.144Z,14.72
2023-01-18T15:55:50.782Z,14.71
2023-01-18T15:57:22.399Z,14.74
2023-01-18T15:58:56.008Z,14.76
2023-01-18T16:00:28.857Z,14.76
2023-01-18T16:02:19.200Z,14.75
2023-01-18T16:03:50.760Z,14.68
2023-01-18T16:05:23.333Z,14.60
2023-01-18T16:06:55.144Z,14.57
2023-01-18T16:08:26.882Z,14.52
2023-01-18T16:10:16.930Z,14.54
2023-01-18T16:11:54.077Z,14.54
2023-01-18T16:13:36.437Z,14.52
2023-01-18T16:15:22.758Z,14.50
2023-01-18T16:16:58.307Z,14.51
2023-01-18T16:18:29.855Z,14.54
2023-01-18T16:20:01.603Z,14.57
2023-01-18T16:21:40.507Z,14.59
2023-01-18T16:23:16.385Z,14.54
2023-01-18T16:24:50.077Z,14.49
2023-01-18T16:26:24.398Z,14.46
2023-01-18T16:27:57.506Z,14.44
2023-01-18T16:29:29.870Z,14.40
2023-01-18T16:31:03.532Z,14.40
2023-01-18T16:32:35.592Z,14.39
2023-01-18T16:34:25.379Z,14.32
2023-01-18T16:35:56.914Z,14.25
2023-01-18T16:37:28.839Z,14.21
2023-01-18T16:39:00.496Z,14.15
2023-01-18T16:40:32.058Z,14.12
2023-01-18T16:42:03.727Z,14.13
2023-01-18T16:43:35.904Z,14.14
2023-01-18T16:45:13.761Z,14.10
2023-01-18T16:46:45.724Z,14.07
2023-01-18T16:48:21.105Z,14.06
2023-01-18T16:49:52.821Z,14.05
2023-01-18T16:51:28.680Z,14.05
2023-01-18T16:53:00.614Z,14.03
2023-01-18T16:54:32.686Z,14.01
2023-01-18T16:56:04.653Z,13.98
2023-01-18T16:57:36.244Z,13.95
2023-01-18T16:59:12.068Z,13.95
2023-01-18T17:00:54.392Z,13.98
2023-01-18T17:02:26.213Z,13.98
2023-01-18T17:03:57.996Z,13.95
2023-01-18T17:05:30.118Z,13.91
2023-01-18T17:07:01.718Z,13.90
2023-01-18T17:08:33.493Z,13.88
2023-01-18T17:10:21.402Z,13.85
2023-01-18T17:11:52.947Z,13.82
2023-01-18T17:13:24.586Z,13.83
2023-01-18T17:14:56.127Z,13.80
2023-01-18T17:16:27.793Z,13.77
2023-01-18T17:17:59.521Z,13.81
2023-01-18T17:19:31.058Z,13.82
2023-01-18T17:21:02.587Z,13.85
2023-01-18T17:22:34.217Z,13.82
2023-01-18T17:24:06.861Z,13.83
2023-01-18T17:25:38.913Z,13.81
2023-01-18T17:27:12.262Z,13.75
2023-01-18T17:28:44.290Z,13.73
2023-01-18T17:30:16.888Z,13.68
2023-01-18T17:31:53.118Z,13.69
2023-01-18T17:33:25.160Z,13.73
2023-01-18T17:34:57.199Z,13.78
2023-01-18T17:36:28.726Z,13.80
2023-01-18T17:38:06.245Z,13.84
2023-01-18T17:39:49.538Z,13.86
2023-01-18T17:41:26.800Z,13.87
2023-01-18T17:42:59.082Z,13.86
2023-01-18T17:44:36.868Z,13.80
2023-01-18T17:46:09.141Z,13.73
2023-01-18T17:47:41.552Z,13.70
2023-01-18T17:49:13.105Z,13.69
2023-01-18T17:50:44.717Z,13.67
2023-01-18T17:52:16.270Z,13.62
2023-01-18T17:53:48.017Z,13.62
2023-01-18T17:55:24.497Z,13.59
2023-01-18T17:56:59.013Z,13.59
2023-01-18T17:58:30.444Z,13.59
2023-01-18T18:00:02.572Z,13.59
2023-01-18T18:01:34.775Z,13.61
2023-01-18T18:03:06.761Z,13.61
2023-01-18T18:04:38.970Z,13.60
2023-01-18T18:06:12.638Z,13.59
2023-01-18T18:07:44.786Z,13.57
2023-01-18T18:09:16.387Z,13.51
2023-01-18T18:10:47.985Z,13.49
2023-01-18T18:12:19.578Z,13.47
2023-01-18T18:13:51.249Z,13.51
2023-01-18T18:15:23.648Z,13.47
2023-01-18T18:16:55.323Z,13.45
2023-01-18T18:18:27.604Z,13.44
2023-01-18T18:19:59.339Z,13.43
2023-01-18T18:21:31.553Z,13.44
2023-01-18T18:23:03.847Z,13.43
2023-01-18T18:24:35.576Z,13.42
2023-01-18T18:26:07.242Z,13.43
2023-01-18T18:27:47.272Z,13.48
2023-01-18T18:29:19.976Z,13.49
2023-01-18T18:30:52.168Z,13.51
2023-01-18T18:32:24.186Z,13.49
2023-01-18T18:33:55.914Z,13.49
2023-01-18T18:35:27.758Z,13.46
2023-01-18T18:36:59.492Z,13.41
2023-01-18T18:38:31.312Z,13.40
2023-01-18T18:40:03.054Z,13.40
2023-01-18T18:41:34.657Z,13.38
2023-01-18T18:43:06.674Z,13.40
2023-01-18T18:44:38.698Z,13.41
2023-01-18T18:46:10.253Z,13.43
2023-01-18T18:47:41.717Z,13.46
2023-01-18T18:49:13.644Z,13.43
2023-01-18T18:50:47.398Z,13.42
2023-01-18T18:52:19.295Z,13.40
2023-01-18T18:53:50.881Z,13.38
2023-01-18T18:55:23.190Z,13.36
2023-01-18T18:56:54.666Z,13.33
2023-01-18T18:58:26.260Z,13.30
2023-01-18T18:59:58.836Z,13.27
2023-01-18T19:01:30.551Z,13.27
2023-01-18T19:03:03.013Z,13.27
2023-01-18T19:04:35.243Z,13.27
2023-01-18T19:06:06.760Z,13.29
2023-01-18T19:07:38.383Z,13.30
2023-01-18T19:09:10.236Z,13.30
2023-01-18T19:10:41.841Z,13.32
2023-01-18T19:12:14.130Z,13.32
2023-01-18T19:13:46.713Z,13.37
2023-01-18T19:15:19.958Z,13.39
2023-01-18T19:16:52.118Z,13.39
2023-01-18T19:18:24.565Z,13.39
2023-01-18T19:19:56.864Z,13.38
2023-01-18T19:21:28.425Z,13.33
2023-01-18T19:23:01.620Z,13.33
2023-01-18T19:24:35.025Z,13.35
2023-01-18T19:26:06.718Z,13.38
2023-01-18T19:27:38.549Z,13.40
2023-01-18T19:29:10.407Z,13.35
2023-01-18T19:30:43.225Z,13.33
2023-01-18T19:32:16.025Z,13.31
2023-01-18T19:33:47.644Z,13.32
2023-01-18T19:35:20.307Z,13.30
2023-01-18T19:36:51.761Z,13.29
2023-01-18T19:38:23.470Z,13.31
2023-01-18T19:39:55.076Z,13.34
2023-01-18T19:41:27.810Z,13.33
2023-01-18T19:42:59.815Z,13.36
2023-01-18T19:44:31.662Z,13.33
2023-01-18T19:46:06.829Z,13.32
2023-01-18T19:47:38.397Z,13.34
2023-01-18T19:49:10.035Z,13.33
2023-01-18T19:50:42.003Z,13.33
2023-01-18T19:52:14.311Z,13.29
2023-01-18T19:53:45.924Z,13.28
2023-01-18T19:55:17.472Z,13.30
2023-01-18T19:56:49.157Z,13.33
2023-01-18T19:58:20.835Z,13.35
2023-01-18T19:59:52.935Z,13.40
2023-01-18T20:01:36.032Z,13.37
2023-01-18T20:03:09.475Z,13.37
2023-01-18T20:04:41.215Z,13.38
2023-01-18T20:06:14.561Z,13.39
2023-01-18T20:07:46.379Z,13.34
2023-01-18T20:09:22.171Z,13.35
2023-01-18T20:10:55.837Z,13.34
2023-01-18T20:12:31.380Z,13.33
2023-01-18T20:14:03.204Z,13.36
2023-01-18T20:15:34.670Z,13.36
2023-01-18T20:17:06.637Z,13.39
2023-01-18T20:18:41.059Z,13.41
2023-01-18T20:20:18.234Z,13.40
2023-01-18T20:21:52.846Z,13.40
2023-01-18T20:23:24.508Z,13.38
2023-01-18T20:24:56.055Z,13.33
2023-01-18T20:26:35.969Z,13.32
2023-01-18T20:28:08.393Z,13.32
2023-01-18T20:29:40.315Z,13.33
2023-01-18T20:31:12.738Z,13.32
2023-01-18T20:32:44.510Z,13.30
2023-01-18T20:34:16.023Z,13.30
2023-01-18T20:35:47.655Z,13.28
2023-01-18T20:37:19.411Z,13.29
2023-01-18T20:38:50.926Z,13.31
2023-01-18T20:40:22.599Z,13.33
2023-01-18T20:41:54.172Z,13.31
2023-01-18T20:43:26.083Z,13.30
2023-01-18T20:45:00.584Z,13.31
2023-01-18T20:46:32.586Z,13.33
2023-01-18T20:48:04.702Z,13.32
2023-01-18T20:49:38.888Z,13.33
2023-01-18T20:51:10.639Z,13.33
2023-01-18T20:52:43.060Z,13.35
2023-01-18T20:54:15.262Z,13.34
2023-01-18T20:55:47.284Z,13.37
2023-01-18T20:57:18.937Z,13.36
2023-01-18T20:58:51.157Z,13.38
2023-01-18T21:00:22.875Z,13.36
2023-01-18T21:01:54.937Z,13.37
2023-01-18T21:03:26.640Z,13.42
2023-01-18T21:04:58.241Z,13.45
2023-01-18T21:06:29.930Z,13.44
2023-01-18T21:08:01.759Z,13.42
2023-01-18T21:09:33.805Z,13.44